createdAt,value
2022-10-01T00:00:57.451Z,13.98
2022-10-01T00:03:22.359Z,14.11
2022-10-01T00:05:45.701Z,14.23
2022-10-01T00:08:08.371Z,14.28
2022-10-01T00:10:31.604Z,14.37
2022-10-01T00:12:54.251Z,14.25
2022-10-01T00:15:17.234Z,14.25
2022-10-01T00:17:41.010Z,14.16
2022-10-01T00:20:10.701Z,14.05
2022-10-01T00:22:37.444Z,14.02
2022-10-01T00:25:00.476Z,14.01
2022-10-01T00:27:23.232Z,14.20
2022-10-01T00:29:45.979Z,14.26
2022-10-01T00:32:10.114Z,14.37
2022-10-01T00:34:32.861Z,14.55
2022-10-01T00:36:55.579Z,14.50
2022-10-01T00:39:18.651Z,14.47
2022-10-01T00:41:42.231Z,14.67
2022-10-01T00:44:27.655Z,14.64
2022-10-01T00:46:51.424Z,14.51
2022-10-01T00:49:20.203Z,14.47
2022-10-01T00:51:47.379Z,14.50
2022-10-01T00:54:17.339Z,14.50
2022-10-01T00:56:41.829Z,14.60
2022-10-01T00:59:06.450Z,14.67
2022-10-01T01:01:29.210Z,14.80
2022-10-01T01:03:51.857Z,14.88
2022-10-01T01:06:14.587Z,14.78
2022-10-01T01:08:37.119Z,14.83
2022-10-01T01:11:15.646Z,14.73
2022-10-01T01:14:09.989Z,14.51
2022-10-01T01:16:43.198Z,14.47
2022-10-01T01:19:47.842Z,14.74
2022-10-01T01:22:13.578Z,14.81
2022-10-01T01:24:59.326Z,14.92
2022-10-01T01:27:57.304Z,14.94
2022-10-01T01:30:20.697Z,14.88
2022-10-01T01:33:03.286Z,14.94
2022-10-01T01:35:32.286Z,14.94
2022-10-01T01:38:01.839Z,14.94
2022-10-01T01:40:26.258Z,15.04
2022-10-01T01:42:50.735Z,14.99
2022-10-01T01:45:20.127Z,15.02
2022-10-01T01:47:44.395Z,15.01
2022-10-01T01:50:08.290Z,14.97
2022-10-01T01:52:31.134Z,15.05
2022-10-01T01:54:54.979Z,14.84
2022-10-01T01:57:19.676Z,14.64
2022-10-01T01:59:46.306Z,14.36
2022-10-01T02:02:20.036Z,14.33
2022-10-01T02:04:48.959Z,14.30
2022-10-01T02:07:44.087Z,14.28
2022-10-01T02:10:25.474Z,14.25
2022-10-01T02:13:39.094Z,14.44
2022-10-01T02:16:22.438Z,14.29
2022-10-01T02:19:00.602Z,14.44
2022-10-01T02:21:35.503Z,14.25
2022-10-01T02:24:03.757Z,14.18
2022-10-01T02:26:28.852Z,14.22
2022-10-01T02:28:54.985Z,14.25
2022-10-01T02:31:19.193Z,14.20
2022-10-01T02:33:43.791Z,14.25
2022-10-01T02:36:09.839Z,14.41
2022-10-01T02:38:35.439Z,14.47
2022-10-01T02:41:01.069Z,14.40
2022-10-01T02:43:32.706Z,14.44
2022-10-01T02:45:59.921Z,14.44
2022-10-01T02:48:22.705Z,14.56
2022-10-01T02:50:53.618Z,14.70
2022-10-01T02:53:34.502Z,14.70
2022-10-01T02:55:58.579Z,14.57
2022-10-01T02:58:21.405Z,14.56
2022-10-01T03:00:44.085Z,14.56
2022-10-01T03:03:06.700Z,14.56
2022-10-01T03:05:29.380Z,14.53
2022-10-01T03:07:52.687Z,14.57
2022-10-01T03:10:16.491Z,14.61
2022-10-01T03:12:45.253Z,14.51
2022-10-01T03:15:11.746Z,14.57
2022-10-01T03:17:36.210Z,14.67
2022-10-01T03:19:58.991Z,14.74
2022-10-01T03:22:22.869Z,14.63
2022-10-01T03:24:45.604Z,14.39
2022-10-01T03:27:08.299Z,14.36
2022-10-01T03:29:31.844Z,14.51
2022-10-01T03:31:55.241Z,14.59
2022-10-01T03:34:18.495Z,14.37
2022-10-01T03:36:41.233Z,14.28
2022-10-01T03:39:04.145Z,14.29
2022-10-01T03:41:26.901Z,14.46
2022-10-01T03:43:49.554Z,14.49
2022-10-01T03:46:12.207Z,14.66
2022-10-01T03:48:35.119Z,14.57
2022-10-01T03:50:59.537Z,14.61
2022-10-01T03:53:22.279Z,14.59
2022-10-01T03:55:44.763Z,14.64
2022-10-01T03:58:07.262Z,14.76
2022-10-01T04:00:29.751Z,14.92
2022-10-01T04:02:52.212Z,14.76
2022-10-01T04:05:14.780Z,14.50
2022-10-01T04:07:37.322Z,14.34
2022-10-01T04:09:59.883Z,14.30
2022-10-01T04:12:22.380Z,14.30
2022-10-01T04:14:44.786Z,14.37
2022-10-01T04:17:07.308Z,14.39
2022-10-01T04:19:29.897Z,14.43
2022-10-01T04:21:52.534Z,14.46
2022-10-01T04:24:15.055Z,14.43
2022-10-01T04:26:37.612Z,14.41
2022-10-01T04:29:00.107Z,14.32
2022-10-01T04:31:25.356Z,14.25
2022-10-01T04:33:48.288Z,14.19
2022-10-01T04:36:10.987Z,14.23
2022-10-01T04:38:33.838Z,14.16
2022-10-01T04:40:56.515Z,14.15
2022-10-01T04:43:19.031Z,14.09
2022-10-01T04:45:41.495Z,14.16
2022-10-01T04:48:05.270Z,14.22
2022-10-01T04:50:27.922Z,14.20
2022-10-01T04:52:51.711Z,14.25
2022-10-01T04:55:15.582Z,14.13
2022-10-01T04:57:41.571Z,14.18
2022-10-01T05:00:06.244Z,14.30
2022-10-01T05:02:29.449Z,14.47
2022-10-01T05:04:52.105Z,14.44
2022-10-01T05:07:14.583Z,14.39
2022-10-01T05:09:37.391Z,14.46
2022-10-01T05:11:59.924Z,14.41
2022-10-01T05:14:22.482Z,14.30
2022-10-01T05:16:45.066Z,14.22
2022-10-01T05:19:08.086Z,14.15
2022-10-01T05:21:31.276Z,14.12
2022-10-01T05:23:54.334Z,14.08
2022-10-01T05:26:16.823Z,14.09
2022-10-01T05:28:44.777Z,14.29
2022-10-01T05:31:07.283Z,14.43
2022-10-01T05:33:31.253Z,14.47
2022-10-01T05:35:53.784Z,14.55
2022-10-01T05:38:16.375Z,14.64
2022-10-01T05:40:38.910Z,14.68
2022-10-01T05:43:03.156Z,14.74
2022-10-01T05:45:27.837Z,14.95
2022-10-01T05:48:01.558Z,14.85
2022-10-01T05:50:25.506Z,14.51
2022-10-01T05:52:51.167Z,14.40
2022-10-01T05:55:13.806Z,14.39
2022-10-01T05:57:36.389Z,14.56
2022-10-01T05:59:59.339Z,14.59
2022-10-01T06:02:21.966Z,14.67
2022-10-01T06:04:44.649Z,14.46
2022-10-01T06:07:07.168Z,14.39
2022-10-01T06:09:29.781Z,14.39
2022-10-01T06:11:52.272Z,14.37
2022-10-01T06:14:15.483Z,14.39
2022-10-01T06:16:38.191Z,14.40
2022-10-01T06:19:00.830Z,14.41
2022-10-01T06:21:24.756Z,14.46
2022-10-01T06:23:49.368Z,14.47
2022-10-01T06:26:11.921Z,14.47
2022-10-01T06:28:34.712Z,14.53
2022-10-01T06:30:57.242Z,14.50
2022-10-01T06:33:20.420Z,14.57
2022-10-01T06:35:50.895Z,14.60
2022-10-01T06:38:14.329Z,14.59
2022-10-01T06:40:37.640Z,14.59
2022-10-01T06:43:00.224Z,14.60
2022-10-01T06:45:23.341Z,14.67
2022-10-01T06:47:53.018Z,14.71
2022-10-01T06:50:15.643Z,14.66
2022-10-01T06:52:50.454Z,14.80
2022-10-01T06:55:16.538Z,14.81
2022-10-01T06:57:39.481Z,14.78
2022-10-01T07:00:02.055Z,14.84
2022-10-01T07:02:29.042Z,14.92
2022-10-01T07:04:51.986Z,15.02
2022-10-01T07:07:14.475Z,15.11
2022-10-01T07:09:37.273Z,15.04
2022-10-01T07:11:59.752Z,15.15
2022-10-01T07:14:22.294Z,15.11
2022-10-01T07:16:44.836Z,15.12
2022-10-01T07:19:07.515Z,15.05
2022-10-01T07:21:29.961Z,15.04
2022-10-01T07:23:52.531Z,15.01
2022-10-01T07:26:15.131Z,15.05
2022-10-01T07:28:37.670Z,15.04
2022-10-01T07:31:10.531Z,15.05
2022-10-01T07:33:33.233Z,15.02
2022-10-01T07:35:55.999Z,15.24
2022-10-01T07:38:18.517Z,15.53
2022-10-01T07:40:41.876Z,15.50
2022-10-01T07:43:04.380Z,15.52
2022-10-01T07:45:28.058Z,15.64
2022-10-01T07:47:59.593Z,15.46
2022-10-01T07:50:22.719Z,15.43
2022-10-01T07:52:45.256Z,15.38
2022-10-01T07:55:11.070Z,15.28
2022-10-01T07:57:34.279Z,15.29
2022-10-01T07:59:57.154Z,15.28
2022-10-01T08:02:19.739Z,15.29
2022-10-01T08:05:01.471Z,15.29
2022-10-01T08:07:24.168Z,15.28
2022-10-01T08:09:47.099Z,15.33
2022-10-01T08:12:09.610Z,15.43
2022-10-01T08:14:32.148Z,15.47
2022-10-01T08:16:56.078Z,15.43
2022-10-01T08:19:18.727Z,15.57
2022-10-01T08:21:42.732Z,15.64
2022-10-01T08:24:05.845Z,15.76
2022-10-01T08:26:28.698Z,15.71
2022-10-01T08:28:51.329Z,15.84
2022-10-01T08:31:13.863Z,15.73
2022-10-01T08:33:38.348Z,15.81
2022-10-01T08:36:02.887Z,15.84
2022-10-01T08:38:25.437Z,15.90
2022-10-01T08:40:50.704Z,16.08
2022-10-01T08:43:34.528Z,16.32
2022-10-01T08:46:01.527Z,16.48
2022-10-01T08:48:56.867Z,16.60
2022-10-01T08:51:29.267Z,16.79
2022-10-01T08:54:14.869Z,16.84
2022-10-01T08:56:41.744Z,16.75
2022-10-01T08:59:14.010Z,16.99
2022-10-01T09:01:37.657Z,16.97
2022-10-01T09:04:00.757Z,16.90
2022-10-01T09:06:27.768Z,16.99
2022-10-01T09:08:53.443Z,17.30
2022-10-01T09:11:29.150Z,17.48
2022-10-01T09:14:32.835Z,17.42
2022-10-01T09:17:13.965Z,17.17
2022-10-01T09:19:47.995Z,17.15
2022-10-01T09:22:10.494Z,17.10
2022-10-01T09:24:54.112Z,16.93
2022-10-01T09:27:18.999Z,16.97
2022-10-01T09:30:02.916Z,17.10
2022-10-01T09:32:32.000Z,17.20
2022-10-01T09:34:54.923Z,17.52
2022-10-01T09:37:32.352Z,17.89
2022-10-01T09:40:23.759Z,17.80
2022-10-01T09:42:48.035Z,17.91
2022-10-01T09:45:25.874Z,18.03
2022-10-01T09:47:55.056Z,18.45
2022-10-01T09:50:55.384Z,18.77
2022-10-01T09:53:21.984Z,19.14
2022-10-01T09:55:49.715Z,19.19
2022-10-01T09:58:17.274Z,19.04
2022-10-01T10:00:41.684Z,19.23
2022-10-01T10:03:04.739Z,19.46
2022-10-01T10:05:29.554Z,19.34
2022-10-01T10:07:59.064Z,19.75
2022-10-01T10:10:29.655Z,20.00
2022-10-01T10:13:02.082Z,20.15
2022-10-01T10:15:28.252Z,20.15
2022-10-01T10:17:51.876Z,20.43
2022-10-01T10:20:25.324Z,20.44
2022-10-01T10:22:47.957Z,20.47
2022-10-01T10:25:14.337Z,20.47
2022-10-01T10:27:37.267Z,20.48
2022-10-01T10:30:14.488Z,20.47
2022-10-01T10:32:37.330Z,20.60
2022-10-01T10:35:05.876Z,20.64
2022-10-01T10:37:33.209Z,20.99
2022-10-01T10:39:56.682Z,21.11
2022-10-01T10:42:22.446Z,21.15
2022-10-01T10:44:47.631Z,21.21
2022-10-01T10:47:13.747Z,21.25
2022-10-01T10:49:45.909Z,21.33
2022-10-01T10:52:24.628Z,21.50
2022-10-01T10:54:49.763Z,21.86
2022-10-01T10:57:41.511Z,21.74
2022-10-01T11:00:16.176Z,22.21
2022-10-01T11:02:48.177Z,22.46
2022-10-01T11:05:23.207Z,22.49
2022-10-01T11:07:47.780Z,22.66
2022-10-01T11:10:23.546Z,22.48
2022-10-01T11:13:14.848Z,22.14
2022-10-01T11:16:02.044Z,22.05
2022-10-01T11:19:01.914Z,21.98
2022-10-01T11:21:49.348Z,22.01
2022-10-01T11:24:29.516Z,21.86
2022-10-01T11:27:06.949Z,21.78
2022-10-01T11:29:41.901Z,21.67
2022-10-01T11:32:36.972Z,21.70
2022-10-01T11:35:11.820Z,21.84
2022-10-01T11:37:52.808Z,22.11
2022-10-01T11:40:45.640Z,22.41
2022-10-01T11:43:26.591Z,22.62
2022-10-01T11:46:01.133Z,22.82
2022-10-01T11:48:39.335Z,22.99
2022-10-01T11:51:08.759Z,23.08
2022-10-01T11:53:40.836Z,23.20
2022-10-01T11:56:29.325Z,23.35
2022-10-01T11:59:22.274Z,22.72
2022-10-01T12:02:42.098Z,22.55
2022-10-01T12:05:17.054Z,22.57
2022-10-01T12:07:49.653Z,22.62
2022-10-01T12:10:28.694Z,22.38
2022-10-01T12:12:56.947Z,22.29
2022-10-01T12:15:26.823Z,22.15
2022-10-01T12:18:00.078Z,22.07
2022-10-01T12:20:44.223Z,22.09
2022-10-01T12:23:13.987Z,22.15
2022-10-01T12:26:10.615Z,22.14
2022-10-01T12:28:41.990Z,22.19
2022-10-01T12:31:16.108Z,22.25
2022-10-01T12:34:11.325Z,22.15
2022-10-01T12:36:56.099Z,21.97
2022-10-01T12:39:35.770Z,21.91
2022-10-01T12:42:23.629Z,21.98
2022-10-01T12:44:54.012Z,21.84
2022-10-01T12:47:42.972Z,21.57
2022-10-01T12:50:33.663Z,21.49
2022-10-01T12:53:11.301Z,21.38
2022-10-01T12:55:52.415Z,21.28
2022-10-01T12:58:36.782Z,21.22
2022-10-01T13:01:27.286Z,21.13
2022-10-01T13:04:17.361Z,21.03
2022-10-01T13:07:08.110Z,20.75
2022-10-01T13:09:50.982Z,20.75
2022-10-01T13:12:29.040Z,20.74
2022-10-01T13:14:53.655Z,20.57
2022-10-01T13:17:30.388Z,20.40
2022-10-01T13:20:18.176Z,20.26
2022-10-01T13:23:14.658Z,20.32
2022-10-01T13:26:00.674Z,20.50
2022-10-01T13:28:43.365Z,20.74
2022-10-01T13:31:19.218Z,20.87
2022-10-01T13:33:52.979Z,20.90
2022-10-01T13:36:19.611Z,20.91
2022-10-01T13:38:43.967Z,20.88
2022-10-01T13:41:18.790Z,20.94
2022-10-01T13:43:57.288Z,20.88
2022-10-01T13:46:20.025Z,20.80
2022-10-01T13:48:48.209Z,20.88
2022-10-01T13:51:13.396Z,20.92
2022-10-01T13:53:37.341Z,20.98
2022-10-01T13:56:00.606Z,21.06
2022-10-01T13:58:38.787Z,21.05
2022-10-01T14:01:04.757Z,20.80
2022-10-01T14:03:39.149Z,20.60
2022-10-01T14:06:06.593Z,20.37
2022-10-01T14:08:34.729Z,20.10
2022-10-01T14:11:21.514Z,19.81
2022-10-01T14:14:06.476Z,19.88
2022-10-01T14:16:31.140Z,19.90
2022-10-01T14:18:53.705Z,19.83
2022-10-01T14:21:28.418Z,19.83
2022-10-01T14:24:05.563Z,19.77
2022-10-01T14:26:37.264Z,19.62
2022-10-01T14:28:59.896Z,19.57
2022-10-01T14:31:28.409Z,19.47
2022-10-01T14:34:13.338Z,19.28
2022-10-01T14:36:43.693Z,18.98
2022-10-01T14:39:17.642Z,18.88
2022-10-01T14:41:41.058Z,18.77
2022-10-01T14:44:20.101Z,18.69
2022-10-01T14:46:42.742Z,18.49
2022-10-01T14:49:05.423Z,18.43
2022-10-01T14:51:30.958Z,18.34
2022-10-01T14:53:55.540Z,18.26
2022-10-01T14:56:18.123Z,18.16
2022-10-01T14:58:46.564Z,18.20
2022-10-01T15:01:18.457Z,18.14
2022-10-01T15:03:44.114Z,18.03
2022-10-01T15:06:41.012Z,17.91
2022-10-01T15:09:14.466Z,17.72
2022-10-01T15:11:40.929Z,17.68
2022-10-01T15:14:16.591Z,17.63
2022-10-01T15:16:39.615Z,17.56
2022-10-01T15:19:06.518Z,17.66
2022-10-01T15:21:50.605Z,17.53
2022-10-01T15:24:46.407Z,17.48
2022-10-01T15:27:10.967Z,17.48
2022-10-01T15:29:34.013Z,17.42
2022-10-01T15:31:58.314Z,17.38
2022-10-01T15:34:23.980Z,17.34
2022-10-01T15:36:48.516Z,17.31
2022-10-01T15:39:26.482Z,17.20
2022-10-01T15:41:54.024Z,17.10
2022-10-01T15:44:38.551Z,17.03
2022-10-01T15:47:19.877Z,16.88
2022-10-01T15:50:09.434Z,16.84
2022-10-01T15:52:55.831Z,16.75
2022-10-01T15:55:23.314Z,16.62
2022-10-01T15:57:46.039Z,16.52
2022-10-01T16:00:39.478Z,16.44
2022-10-01T16:03:02.749Z,16.45
2022-10-01T16:05:29.856Z,16.44
2022-10-01T16:07:56.243Z,16.38
2022-10-01T16:10:36.824Z,16.31
2022-10-01T16:12:59.979Z,16.24
2022-10-01T16:15:30.421Z,16.24
2022-10-01T16:17:58.156Z,16.19
2022-10-01T16:20:45.649Z,16.14
2022-10-01T16:23:30.437Z,16.14
2022-10-01T16:25:53.052Z,16.07
2022-10-01T16:28:27.420Z,16.04
2022-10-01T16:30:51.446Z,16.05
2022-10-01T16:33:13.972Z,15.97
2022-10-01T16:35:37.920Z,15.98
2022-10-01T16:38:00.718Z,16.01
2022-10-01T16:40:28.346Z,16.01
2022-10-01T16:42:51.592Z,16.04
2022-10-01T16:45:24.615Z,16.02
2022-10-01T16:47:47.251Z,15.96
2022-10-01T16:50:12.117Z,15.93
2022-10-01T16:52:34.524Z,15.91
2022-10-01T16:54:56.950Z,15.87
2022-10-01T16:57:19.562Z,15.87
2022-10-01T16:59:42.995Z,15.90
2022-10-01T17:02:05.599Z,15.87
2022-10-01T17:04:33.614Z,15.87
2022-10-01T17:06:56.688Z,15.79
2022-10-01T17:09:19.206Z,15.77
2022-10-01T17:11:43.528Z,15.80
2022-10-01T17:14:08.827Z,15.80
2022-10-01T17:16:31.473Z,15.81
2022-10-01T17:18:54.036Z,15.76
2022-10-01T17:21:16.565Z,15.71
2022-10-01T17:23:39.185Z,15.63
2022-10-01T17:26:01.803Z,15.60
2022-10-01T17:28:24.554Z,15.56
2022-10-01T17:30:49.219Z,15.66
2022-10-01T17:33:13.231Z,15.50
2022-10-01T17:35:42.022Z,15.42
2022-10-01T17:38:04.577Z,15.45
2022-10-01T17:40:27.085Z,15.47
2022-10-01T17:42:49.737Z,15.49
2022-10-01T17:45:15.672Z,15.46
2022-10-01T17:47:45.957Z,15.49
2022-10-01T17:50:08.684Z,15.46
2022-10-01T17:52:32.544Z,15.40
2022-10-01T17:54:55.321Z,15.33
2022-10-01T17:57:17.968Z,15.25
2022-10-01T17:59:40.671Z,15.24
2022-10-01T18:02:18.689Z,15.31
2022-10-01T18:04:46.476Z,15.18
2022-10-01T18:07:13.436Z,15.22
2022-10-01T18:09:36.138Z,15.22
2022-10-01T18:11:58.592Z,15.22
2022-10-01T18:14:21.209Z,15.18
2022-10-01T18:16:43.724Z,15.24
2022-10-01T18:21:51.072Z,15.28
2022-10-01T18:24:14.768Z,15.26
2022-10-01T18:26:37.649Z,15.14
2022-10-01T18:29:00.590Z,15.24
2022-10-01T18:31:35.363Z,15.09
2022-10-01T18:34:00.437Z,15.05
2022-10-01T18:36:41.021Z,14.97
2022-10-01T18:39:42.239Z,14.94
2022-10-01T18:42:46.112Z,14.98
2022-10-01T18:45:37.127Z,14.98
2022-10-01T18:48:17.024Z,15.05
2022-10-01T18:51:01.440Z,15.01
2022-10-01T18:53:23.945Z,14.97
2022-10-01T18:55:55.577Z,14.98
2022-10-01T18:58:58.455Z,14.98
2022-10-01T19:01:38.708Z,15.02
2022-10-01T19:04:38.778Z,15.02
2022-10-01T19:07:47.841Z,15.04
2022-10-01T19:10:16.685Z,15.05
2022-10-01T19:13:01.210Z,14.99
2022-10-01T19:16:09.743Z,15.08
2022-10-01T19:18:35.845Z,15.01
2022-10-01T19:20:58.332Z,15.06
2022-10-01T19:23:59.647Z,15.06
2022-10-01T19:26:46.869Z,14.99
2022-10-01T19:29:21.184Z,15.04
2022-10-01T19:31:56.237Z,14.98
2022-10-01T19:34:39.673Z,15.02
2022-10-01T19:37:06.746Z,15.05
2022-10-01T19:39:35.243Z,15.14
2022-10-01T19:42:03.628Z,15.06
2022-10-01T19:44:32.937Z,15.08
2022-10-01T19:47:02.771Z,15.01
2022-10-01T19:49:32.912Z,15.05
2022-10-01T19:52:01.410Z,14.99
2022-10-01T19:54:31.250Z,15.04
2022-10-01T19:57:02.837Z,14.97
2022-10-01T19:59:28.596Z,15.02
2022-10-01T20:02:03.745Z,14.99
2022-10-01T20:05:04.674Z,14.97
2022-10-01T20:07:59.672Z,14.89
2022-10-01T20:10:45.199Z,14.87
2022-10-01T20:13:19.539Z,14.91
2022-10-01T20:15:58.758Z,14.85
2022-10-01T20:18:38.465Z,14.91
2022-10-01T20:21:15.932Z,14.95
2022-10-01T20:24:00.293Z,14.89
2022-10-01T20:26:48.969Z,14.85
2022-10-01T20:29:43.007Z,14.85
2022-10-01T20:32:28.934Z,14.88
2022-10-01T20:35:01.774Z,14.87
2022-10-01T20:37:34.913Z,14.91
2022-10-01T20:40:25.171Z,14.97
2022-10-01T20:42:49.853Z,14.95
2022-10-01T20:45:32.256Z,14.95
2022-10-01T20:48:00.061Z,14.97
2022-10-01T20:50:29.543Z,14.97
2022-10-01T20:53:09.871Z,14.94
2022-10-01T20:55:39.237Z,14.94
2022-10-01T20:58:13.064Z,14.95
2022-10-01T21:00:43.091Z,14.99
2022-10-01T21:03:18.035Z,14.89
2022-10-01T21:05:49.128Z,15.02
2022-10-01T21:08:29.603Z,14.98
2022-10-01T21:10:55.788Z,14.95
2022-10-01T21:13:43.574Z,14.89
2022-10-01T21:16:26.541Z,14.85
2022-10-01T21:18:58.137Z,14.77
2022-10-01T21:21:35.603Z,14.67
2022-10-01T21:24:31.735Z,14.60
2022-10-01T21:27:07.942Z,14.44
2022-10-01T21:29:39.792Z,14.40
2022-10-01T21:32:07.973Z,14.40
2022-10-01T21:35:08.878Z,14.30
2022-10-01T21:37:40.525Z,14.19
2022-10-01T21:40:22.142Z,14.08
2022-10-01T21:43:15.663Z,14.04
2022-10-01T21:45:58.367Z,14.00
2022-10-01T21:48:41.860Z,14.01
2022-10-01T21:51:26.418Z,14.02
2022-10-01T21:54:19.655Z,13.98
2022-10-01T21:57:07.622Z,13.98
2022-10-01T22:00:08.723Z,13.94
2022-10-01T22:02:36.848Z,13.97
2022-10-01T22:05:23.316Z,14.01
2022-10-01T22:08:15.462Z,13.98
2022-10-01T22:10:43.160Z,13.97
2022-10-01T22:13:15.133Z,13.98
2022-10-01T22:15:43.458Z,13.97
2022-10-01T22:18:12.584Z,13.89
2022-10-01T22:20:42.618Z,13.85
2022-10-01T22:23:11.511Z,13.91
2022-10-01T22:25:36.554Z,13.92
2022-10-01T22:28:09.706Z,13.85
2022-10-01T22:30:37.533Z,13.86
2022-10-01T22:33:08.928Z,13.88
2022-10-01T22:35:39.491Z,13.86
2022-10-01T22:38:15.139Z,13.81
2022-10-01T22:40:47.803Z,13.71
2022-10-01T22:43:12.697Z,13.71
2022-10-01T22:45:59.819Z,13.70
2022-10-01T22:48:31.161Z,13.68
2022-10-01T22:51:03.269Z,13.65
2022-10-01T22:53:45.450Z,13.68
2022-10-01T22:56:11.647Z,13.68
2022-10-01T22:58:49.191Z,13.60
2022-10-01T23:01:53.789Z,13.60
2022-10-01T23:04:42.516Z,13.65
2022-10-01T23:07:24.824Z,13.73
2022-10-01T23:10:04.095Z,13.73
2022-10-01T23:12:57.694Z,13.71
2022-10-01T23:15:26.120Z,13.81
2022-10-01T23:18:13.478Z,13.79
2022-10-01T23:20:46.983Z,13.79
2022-10-01T23:23:16.730Z,13.81
2022-10-01T23:25:57.899Z,13.86
2022-10-01T23:28:27.624Z,13.86
2022-10-01T23:31:15.541Z,13.85
2022-10-01T23:34:00.862Z,13.89
2022-10-01T23:36:46.983Z,13.86
2022-10-01T23:39:32.324Z,13.92
2022-10-01T23:42:13.340Z,13.91
2022-10-01T23:44:39.561Z,13.91
2022-10-01T23:47:08.700Z,13.95
2022-10-01T23:49:37.028Z,13.92
2022-10-01T23:52:12.743Z,13.94
2022-10-01T23:54:39.940Z,14.01
2022-10-01T23:57:09.794Z,14.01
2022-10-01T23:59:37.529Z,14.00
